sensor_id;sensor_type;location;lat;lon;timestamp;P1;durP1;ratioP1;P2;durP2;ratioP2
54641;SDS011;40536;53.194;5.728;2024-01-15T00:00:39;28.05;;;25.45;;
54641;SDS011;40536;53.194;5.728;2024-01-15T00:03:05;78.65;;;72.80;;
54641;SDS011;40536;53.194;5.728;2024-01-15T00:05:31;33.10;;;30.10;;
54641;SDS011;40536;53.194;5.728;2024-01-15T00:07:56;65.95;;;61.58;;
54641;SDS011;40536;53.194;5.728;2024-01-15T00:10:22;21.77;;;17.77;;
54641;SDS011;40536;53.194;5.728;2024-01-15T00:12:48;118.40;;;108.40;;
54641;SDS011;40536;53.194;5.728;2024-01-15T00:15:14;71.90;;;67.50;;
54641;SDS011;40536;53.194;5.728;2024-01-15T00:17:40;30.10;;;23.35;;
54641;SDS011;40536;53.194;5.728;2024-01-15T00:20:06;49.03;;;44.78;;
54641;SDS011;40536;53.194;5.728;2024-01-15T00:22:32;37.17;;;33.10;;
54641;SDS011;40536;53.194;5.728;2024-01-15T00:25:00;50.10;;;46.78;;
54641;SDS011;40536;53.194;5.728;2024-01-15T00:27:26;42.83;;;38.92;;
54641;SDS011;40536;53.194;5.728;2024-01-15T00:29:52;30.90;;;27.98;;
54641;SDS011;40536;53.194;5.728;2024-01-15T00:32:19;136.52;;;126.47;;
54641;SDS011;40536;53.194;5.728;2024-01-15T00:34:46;70.80;;;65.82;;
54641;SDS011;40536;53.194;5.728;2024-01-15T00:37:13;55.65;;;51.33;;
54641;SDS011;40536;53.194;5.728;2024-01-15T00:39:38;121.50;;;114.07;;
54641;SDS011;40536;53.194;5.728;2024-01-15T00:42:04;84.75;;;79.53;;
54641;SDS011;40536;53.194;5.728;2024-01-15T00:44:30;147.05;;;136.32;;
54641;SDS011;40536;53.194;5.728;2024-01-15T00:46:55;39.78;;;36.80;;
54641;SDS011;40536;53.194;5.728;2024-01-15T00:49:21;40.53;;;37.75;;
54641;SDS011;40536;53.194;5.728;2024-01-15T00:51:47;40.95;;;38.03;;
54641;SDS011;40536;53.194;5.728;2024-01-15T00:54:12;91.18;;;85.97;;
54641;SDS011;40536;53.194;5.728;2024-01-15T00:56:38;88.95;;;84.00;;
54641;SDS011;40536;53.194;5.728;2024-01-15T00:59:04;100.40;;;94.07;;
54641;SDS011;40536;53.194;5.728;2024-01-15T01:01:29;139.18;;;132.00;;
54641;SDS011;40536;53.194;5.728;2024-01-15T01:03:55;265.67;;;250.60;;
54641;SDS011;40536;53.194;5.728;2024-01-15T01:06:21;163.93;;;153.27;;
54641;SDS011;40536;53.194;5.728;2024-01-15T01:08:46;89.57;;;84.90;;
54641;SDS011;40536;53.194;5.728;2024-01-15T01:11:13;112.03;;;105.43;;
54641;SDS011;40536;53.194;5.728;2024-01-15T01:13:39;91.70;;;86.50;;
54641;SDS011;40536;53.194;5.728;2024-01-15T01:16:04;82.55;;;77.53;;
54641;SDS011;40536;53.194;5.728;2024-01-15T01:18:30;73.57;;;68.68;;
54641;SDS011;40536;53.194;5.728;2024-01-15T01:20:56;38.67;;;35.55;;
54641;SDS011;40536;53.194;5.728;2024-01-15T01:23:21;39.67;;;35.63;;
54641;SDS011;40536;53.194;5.728;2024-01-15T01:25:47;41.17;;;38.13;;
54641;SDS011;40536;53.194;5.728;2024-01-15T01:28:13;48.15;;;44.47;;
54641;SDS011;40536;53.194;5.728;2024-01-15T01:30:38;82.82;;;77.45;;
54641;SDS011;40536;53.194;5.728;2024-01-15T01:33:05;53.42;;;49.33;;
54641;SDS011;40536;53.194;5.728;2024-01-15T01:35:31;49.38;;;45.72;;
54641;SDS011;40536;53.194;5.728;2024-01-15T01:37:57;142.85;;;132.70;;
54641;SDS011;40536;53.194;5.728;2024-01-15T01:40:22;62.40;;;57.72;;
54641;SDS011;40536;53.194;5.728;2024-01-15T01:42:48;108.85;;;101.03;;
54641;SDS011;40536;53.194;5.728;2024-01-15T01:45:14;47.22;;;43.58;;
54641;SDS011;40536;53.194;5.728;2024-01-15T01:47:40;51.45;;;47.53;;
54641;SDS011;40536;53.194;5.728;2024-01-15T01:50:06;46.92;;;43.10;;
54641;SDS011;40536;53.194;5.728;2024-01-15T01:52:32;34.00;;;22.52;;
54641;SDS011;40536;53.194;5.728;2024-01-15T01:55:00;23.98;;;21.67;;
54641;SDS011;40536;53.194;5.728;2024-01-15T01:57:26;36.80;;;22.52;;
54641;SDS011;40536;53.194;5.728;2024-01-15T01:59:53;62.90;;;58.17;;
54641;SDS011;40536;53.194;5.728;2024-01-15T02:02:19;104.97;;;98.15;;
54641;SDS011;40536;53.194;5.728;2024-01-15T02:04:46;81.20;;;75.35;;
54641;SDS011;40536;53.194;5.728;2024-01-15T02:07:13;110.07;;;101.53;;
54641;SDS011;40536;53.194;5.728;2024-01-15T02:09:38;31.73;;;28.83;;
54641;SDS011;40536;53.194;5.728;2024-01-15T02:12:04;68.90;;;64.68;;
54641;SDS011;40536;53.194;5.728;2024-01-15T02:14:30;33.78;;;30.73;;
54641;SDS011;40536;53.194;5.728;2024-01-15T02:16:56;34.17;;;30.77;;
54641;SDS011;40536;53.194;5.728;2024-01-15T02:19:22;28.52;;;25.92;;
54641;SDS011;40536;53.194;5.728;2024-01-15T02:21:47;27.05;;;23.42;;
54641;SDS011;40536;53.194;5.728;2024-01-15T02:24:13;28.80;;;22.38;;
54641;SDS011;40536;53.194;5.728;2024-01-15T02:26:39;26.08;;;20.13;;
54641;SDS011;40536;53.194;5.728;2024-01-15T02:29:05;26.70;;;17.92;;
54641;SDS011;40536;53.194;5.728;2024-01-15T02:31:36;23.10;;;16.83;;
54641;SDS011;40536;53.194;5.728;2024-01-15T02:34:04;342.77;;;314.95;;
54641;SDS011;40536;53.194;5.728;2024-01-15T02:36:31;137.38;;;128.57;;
54641;SDS011;40536;53.194;5.728;2024-01-15T02:38:57;144.50;;;132.55;;
54641;SDS011;40536;53.194;5.728;2024-01-15T02:41:22;46.45;;;42.90;;
54641;SDS011;40536;53.194;5.728;2024-01-15T02:43:48;68.68;;;64.35;;
54641;SDS011;40536;53.194;5.728;2024-01-15T02:46:14;38.38;;;35.95;;
54641;SDS011;40536;53.194;5.728;2024-01-15T02:48:41;24.95;;;23.02;;
54641;SDS011;40536;53.194;5.728;2024-01-15T02:51:07;28.55;;;26.63;;
54641;SDS011;40536;53.194;5.728;2024-01-15T02:53:32;23.13;;;21.40;;
54641;SDS011;40536;53.194;5.728;2024-01-15T02:55:58;31.75;;;29.35;;
54641;SDS011;40536;53.194;5.728;2024-01-15T02:58:24;27.15;;;21.92;;
54641;SDS011;40536;53.194;5.728;2024-01-15T03:00:49;21.88;;;20.25;;
54641;SDS011;40536;53.194;5.728;2024-01-15T03:03:15;26.70;;;23.88;;
54641;SDS011;40536;53.194;5.728;2024-01-15T03:05:41;46.40;;;42.95;;
54641;SDS011;40536;53.194;5.728;2024-01-15T03:08:06;33.05;;;30.02;;
54641;SDS011;40536;53.194;5.728;2024-01-15T03:10:32;24.05;;;21.88;;
54641;SDS011;40536;53.194;5.728;2024-01-15T03:12:57;25.25;;;22.70;;
54641;SDS011;40536;53.194;5.728;2024-01-15T03:15:23;37.45;;;34.25;;
54641;SDS011;40536;53.194;5.728;2024-01-15T03:17:48;35.33;;;32.28;;
54641;SDS011;40536;53.194;5.728;2024-01-15T03:20:14;63.83;;;58.90;;
54641;SDS011;40536;53.194;5.728;2024-01-15T03:22:40;56.92;;;53.13;;
54641;SDS011;40536;53.194;5.728;2024-01-15T03:25:06;35.30;;;32.85;;
54641;SDS011;40536;53.194;5.728;2024-01-15T03:27:32;55.30;;;49.85;;
54641;SDS011;40536;53.194;5.728;2024-01-15T03:29:58;65.38;;;60.33;;
54641;SDS011;40536;53.194;5.728;2024-01-15T03:32:24;81.65;;;75.85;;
54641;SDS011;40536;53.194;5.728;2024-01-15T03:34:50;213.68;;;200.07;;
54641;SDS011;40536;53.194;5.728;2024-01-15T03:37:17;205.13;;;189.85;;
54641;SDS011;40536;53.194;5.728;2024-01-15T03:39:43;130.93;;;124.18;;
54641;SDS011;40536;53.194;5.728;2024-01-15T03:42:08;26.50;;;24.42;;
54641;SDS011;40536;53.194;5.728;2024-01-15T03:44:34;31.73;;;29.85;;
54641;SDS011;40536;53.194;5.728;2024-01-15T03:46:59;20.60;;;19.00;;
54641;SDS011;40536;53.194;5.728;2024-01-15T03:49:25;30.73;;;28.77;;
54641;SDS011;40536;53.194;5.728;2024-01-15T03:51:51;15.65;;;14.40;;
54641;SDS011;40536;53.194;5.728;2024-01-15T03:54:17;14.30;;;13.07;;
54641;SDS011;40536;53.194;5.728;2024-01-15T03:56:42;16.08;;;14.63;;
54641;SDS011;40536;53.194;5.728;2024-01-15T03:59:08;16.05;;;14.00;;
54641;SDS011;40536;53.194;5.728;2024-01-15T04:01:33;16.20;;;12.02;;
54641;SDS011;40536;53.194;5.728;2024-01-15T04:03:59;16.90;;;14.93;;
54641;SDS011;40536;53.194;5.728;2024-01-15T04:06:25;15.27;;;12.00;;
54641;SDS011;40536;53.194;5.728;2024-01-15T04:08:50;17.83;;;12.52;;
54641;SDS011;40536;53.194;5.728;2024-01-15T04:11:16;16.38;;;12.30;;
54641;SDS011;40536;53.194;5.728;2024-01-15T04:13:41;20.38;;;18.35;;
54641;SDS011;40536;53.194;5.728;2024-01-15T04:16:07;16.60;;;13.63;;
54641;SDS011;40536;53.194;5.728;2024-01-15T04:18:33;14.35;;;12.65;;
54641;SDS011;40536;53.194;5.728;2024-01-15T04:20:58;17.77;;;11.85;;
54641;SDS011;40536;53.194;5.728;2024-01-15T04:23:24;15.55;;;13.00;;
54641;SDS011;40536;53.194;5.728;2024-01-15T04:25:50;15.23;;;13.68;;
54641;SDS011;40536;53.194;5.728;2024-01-15T04:28:15;14.80;;;13.40;;
54641;SDS011;40536;53.194;5.728;2024-01-15T04:30:41;18.60;;;12.95;;
54641;SDS011;40536;53.194;5.728;2024-01-15T04:33:06;17.38;;;12.27;;
54641;SDS011;40536;53.194;5.728;2024-01-15T04:35:34;22.08;;;13.90;;
54641;SDS011;40536;53.194;5.728;2024-01-15T04:38:00;22.92;;;16.42;;
54641;SDS011;40536;53.194;5.728;2024-01-15T04:40:25;24.67;;;15.60;;
54641;SDS011;40536;53.194;5.728;2024-01-15T04:42:53;18.02;;;16.17;;
54641;SDS011;40536;53.194;5.728;2024-01-15T04:45:19;17.85;;;14.85;;
54641;SDS011;40536;53.194;5.728;2024-01-15T04:47:47;19.33;;;16.10;;
54641;SDS011;40536;53.194;5.728;2024-01-15T04:50:13;26.25;;;14.18;;
54641;SDS011;40536;53.194;5.728;2024-01-15T04:52:39;18.98;;;12.77;;
54641;SDS011;40536;53.194;5.728;2024-01-15T04:55:05;18.20;;;12.68;;
54641;SDS011;40536;53.194;5.728;2024-01-15T04:57:30;15.05;;;13.52;;
54641;SDS011;40536;53.194;5.728;2024-01-15T04:59:57;13.77;;;12.48;;
54641;SDS011;40536;53.194;5.728;2024-01-15T05:02:22;18.58;;;12.50;;
54641;SDS011;40536;53.194;5.728;2024-01-15T05:04:48;17.13;;;12.32;;
54641;SDS011;40536;53.194;5.728;2024-01-15T05:07:14;20.88;;;13.15;;
54641;SDS011;40536;53.194;5.728;2024-01-15T05:09:39;19.70;;;12.95;;
54641;SDS011;40536;53.194;5.728;2024-01-15T05:12:05;26.65;;;13.18;;
54641;SDS011;40536;53.194;5.728;2024-01-15T05:14:31;23.13;;;17.48;;
54641;SDS011;40536;53.194;5.728;2024-01-15T05:16:56;29.95;;;14.73;;
54641;SDS011;40536;53.194;5.728;2024-01-15T05:19:22;23.30;;;20.98;;
54641;SDS011;40536;53.194;5.728;2024-01-15T05:21:47;20.50;;;12.60;;
54641;SDS011;40536;53.194;5.728;2024-01-15T05:24:13;32.42;;;29.42;;
54641;SDS011;40536;53.194;5.728;2024-01-15T05:26:39;24.10;;;17.55;;
54641;SDS011;40536;53.194;5.728;2024-01-15T05:29:04;25.90;;;15.57;;
54641;SDS011;40536;53.194;5.728;2024-01-15T05:31:30;32.13;;;14.02;;
54641;SDS011;40536;53.194;5.728;2024-01-15T05:33:56;15.95;;;13.93;;
54641;SDS011;40536;53.194;5.728;2024-01-15T05:36:23;24.52;;;14.45;;
54641;SDS011;40536;53.194;5.728;2024-01-15T05:38:48;22.73;;;11.55;;
54641;SDS011;40536;53.194;5.728;2024-01-15T05:41:14;22.67;;;20.33;;
54641;SDS011;40536;53.194;5.728;2024-01-15T05:43:40;19.02;;;11.38;;
54641;SDS011;40536;53.194;5.728;2024-01-15T05:46:06;32.38;;;29.58;;
54641;SDS011;40536;53.194;5.728;2024-01-15T05:48:31;23.15;;;16.02;;
54641;SDS011;40536;53.194;5.728;2024-01-15T05:50:57;16.98;;;13.50;;
54641;SDS011;40536;53.194;5.728;2024-01-15T05:53:22;25.45;;;23.38;;
54641;SDS011;40536;53.194;5.728;2024-01-15T05:55:48;24.70;;;22.38;;
54641;SDS011;40536;53.194;5.728;2024-01-15T05:58:14;128.27;;;117.15;;
54641;SDS011;40536;53.194;5.728;2024-01-15T06:00:39;90.45;;;83.38;;
54641;SDS011;40536;53.194;5.728;2024-01-15T06:03:05;48.45;;;44.88;;
54641;SDS011;40536;53.194;5.728;2024-01-15T06:05:30;139.65;;;128.70;;
54641;SDS011;40536;53.194;5.728;2024-01-15T06:07:56;29.98;;;27.75;;
54641;SDS011;40536;53.194;5.728;2024-01-15T06:10:22;14.73;;;13.38;;
54641;SDS011;40536;53.194;5.728;2024-01-15T06:12:47;16.45;;;15.23;;
54641;SDS011;40536;53.194;5.728;2024-01-15T06:15:13;13.32;;;11.82;;
54641;SDS011;40536;53.194;5.728;2024-01-15T06:17:39;13.35;;;11.95;;
54641;SDS011;40536;53.194;5.728;2024-01-15T06:20:05;13.25;;;11.65;;
54641;SDS011;40536;53.194;5.728;2024-01-15T06:22:31;13.82;;;11.73;;
54641;SDS011;40536;53.194;5.728;2024-01-15T06:24:57;14.05;;;12.75;;
54641;SDS011;40536;53.194;5.728;2024-01-15T06:27:23;13.98;;;12.60;;
54641;SDS011;40536;53.194;5.728;2024-01-15T06:29:49;14.10;;;11.73;;
54641;SDS011;40536;53.194;5.728;2024-01-15T06:32:15;14.27;;;12.80;;
54641;SDS011;40536;53.194;5.728;2024-01-15T06:34:42;16.13;;;12.60;;
54641;SDS011;40536;53.194;5.728;2024-01-15T06:37:08;22.05;;;15.95;;
54641;SDS011;40536;53.194;5.728;2024-01-15T06:39:33;17.60;;;13.20;;
54641;SDS011;40536;53.194;5.728;2024-01-15T06:41:59;21.75;;;19.80;;
54641;SDS011;40536;53.194;5.728;2024-01-15T06:44:25;20.25;;;13.60;;
54641;SDS011;40536;53.194;5.728;2024-01-15T06:46:50;22.30;;;13.50;;
54641;SDS011;40536;53.194;5.728;2024-01-15T06:49:16;23.98;;;15.50;;
54641;SDS011;40536;53.194;5.728;2024-01-15T06:51:42;20.75;;;17.70;;
54641;SDS011;40536;53.194;5.728;2024-01-15T06:54:08;24.48;;;20.52;;
54641;SDS011;40536;53.194;5.728;2024-01-15T06:56:34;20.67;;;19.00;;
54641;SDS011;40536;53.194;5.728;2024-01-15T06:59:00;29.27;;;17.85;;
54641;SDS011;40536;53.194;5.728;2024-01-15T07:01:26;18.88;;;16.98;;
54641;SDS011;40536;53.194;5.728;2024-01-15T07:03:51;22.55;;;17.98;;
54641;SDS011;40536;53.194;5.728;2024-01-15T07:06:17;17.02;;;13.45;;
54641;SDS011;40536;53.194;5.728;2024-01-15T07:08:42;19.50;;;16.48;;
54641;SDS011;40536;53.194;5.728;2024-01-15T07:11:08;19.38;;;16.42;;
54641;SDS011;40536;53.194;5.728;2024-01-15T07:13:34;18.05;;;13.52;;
54641;SDS011;40536;53.194;5.728;2024-01-15T07:16:01;39.03;;;36.33;;
54641;SDS011;40536;53.194;5.728;2024-01-15T07:18:27;26.48;;;23.67;;
54641;SDS011;40536;53.194;5.728;2024-01-15T07:20:53;93.45;;;87.20;;
54641;SDS011;40536;53.194;5.728;2024-01-15T07:23:18;46.13;;;43.15;;
54641;SDS011;40536;53.194;5.728;2024-01-15T07:25:44;30.88;;;28.02;;
54641;SDS011;40536;53.194;5.728;2024-01-15T07:28:10;64.15;;;60.17;;
54641;SDS011;40536;53.194;5.728;2024-01-15T07:30:36;28.52;;;26.05;;
54641;SDS011;40536;53.194;5.728;2024-01-15T07:33:05;23.58;;;21.33;;
54641;SDS011;40536;53.194;5.728;2024-01-15T07:35:31;37.92;;;34.97;;
54641;SDS011;40536;53.194;5.728;2024-01-15T07:37:57;13.52;;;12.35;;
54641;SDS011;40536;53.194;5.728;2024-01-15T07:40:23;12.77;;;11.65;;
54641;SDS011;40536;53.194;5.728;2024-01-15T07:42:50;12.50;;;11.23;;
54641;SDS011;40536;53.194;5.728;2024-01-15T07:45:16;12.00;;;10.93;;
54641;SDS011;40536;53.194;5.728;2024-01-15T07:47:41;13.50;;;11.15;;
54641;SDS011;40536;53.194;5.728;2024-01-15T07:50:07;12.35;;;11.35;;
54641;SDS011;40536;53.194;5.728;2024-01-15T07:52:33;12.40;;;11.40;;
54641;SDS011;40536;53.194;5.728;2024-01-15T07:54:58;12.48;;;11.55;;
54641;SDS011;40536;53.194;5.728;2024-01-15T07:57:28;13.30;;;9.98;;
54641;SDS011;40536;53.194;5.728;2024-01-15T07:59:54;12.20;;;10.90;;
54641;SDS011;40536;53.194;5.728;2024-01-15T08:02:20;11.38;;;10.57;;
54641;SDS011;40536;53.194;5.728;2024-01-15T08:04:46;14.25;;;11.57;;
54641;SDS011;40536;53.194;5.728;2024-01-15T08:07:12;12.43;;;11.32;;
54641;SDS011;40536;53.194;5.728;2024-01-15T08:09:38;13.57;;;12.30;;
54641;SDS011;40536;53.194;5.728;2024-01-15T08:12:03;13.88;;;12.48;;
54641;SDS011;40536;53.194;5.728;2024-01-15T08:14:31;15.43;;;14.23;;
54641;SDS011;40536;53.194;5.728;2024-01-15T08:16:57;16.02;;;14.43;;
54641;SDS011;40536;53.194;5.728;2024-01-15T08:19:23;17.88;;;16.52;;
54641;SDS011;40536;53.194;5.728;2024-01-15T08:21:49;20.80;;;18.98;;
54641;SDS011;40536;53.194;5.728;2024-01-15T08:24:15;19.13;;;17.33;;
54641;SDS011;40536;53.194;5.728;2024-01-15T08:26:41;20.27;;;18.67;;
54641;SDS011;40536;53.194;5.728;2024-01-15T08:29:07;23.70;;;21.75;;
54641;SDS011;40536;53.194;5.728;2024-01-15T08:31:33;20.23;;;18.55;;
54641;SDS011;40536;53.194;5.728;2024-01-15T08:33:58;17.77;;;16.20;;
54641;SDS011;40536;53.194;5.728;2024-01-15T08:36:26;18.88;;;16.80;;
54641;SDS011;40536;53.194;5.728;2024-01-15T08:38:54;13.43;;;12.23;;
54641;SDS011;40536;53.194;5.728;2024-01-15T08:41:20;15.15;;;11.48;;
54641;SDS011;40536;53.194;5.728;2024-01-15T08:43:46;14.30;;;12.82;;
54641;SDS011;40536;53.194;5.728;2024-01-15T08:46:11;14.57;;;13.00;;
54641;SDS011;40536;53.194;5.728;2024-01-15T08:48:37;12.80;;;11.70;;
54641;SDS011;40536;53.194;5.728;2024-01-15T08:51:03;16.02;;;14.50;;
54641;SDS011;40536;53.194;5.728;2024-01-15T08:53:29;14.30;;;12.73;;
54641;SDS011;40536;53.194;5.728;2024-01-15T08:55:54;12.07;;;10.88;;
54641;SDS011;40536;53.194;5.728;2024-01-15T08:58:20;13.93;;;12.35;;
54641;SDS011;40536;53.194;5.728;2024-01-15T09:00:46;13.88;;;11.52;;
54641;SDS011;40536;53.194;5.728;2024-01-15T09:03:11;18.00;;;12.18;;
54641;SDS011;40536;53.194;5.728;2024-01-15T09:05:37;19.60;;;14.27;;
54641;SDS011;40536;53.194;5.728;2024-01-15T09:08:02;15.25;;;13.07;;
54641;SDS011;40536;53.194;5.728;2024-01-15T09:10:28;14.50;;;12.90;;
54641;SDS011;40536;53.194;5.728;2024-01-15T09:12:54;14.60;;;13.18;;
54641;SDS011;40536;53.194;5.728;2024-01-15T09:15:20;14.93;;;12.95;;
54641;SDS011;40536;53.194;5.728;2024-01-15T09:17:45;12.52;;;11.32;;
54641;SDS011;40536;53.194;5.728;2024-01-15T09:20:11;15.18;;;13.55;;
54641;SDS011;40536;53.194;5.728;2024-01-15T09:22:40;31.70;;;29.58;;
54641;SDS011;40536;53.194;5.728;2024-01-15T09:25:07;22.25;;;20.73;;
54641;SDS011;40536;53.194;5.728;2024-01-15T09:27:34;48.50;;;44.28;;
54641;SDS011;40536;53.194;5.728;2024-01-15T09:30:01;17.42;;;16.23;;
54641;SDS011;40536;53.194;5.728;2024-01-15T09:32:27;29.67;;;27.48;;
54641;SDS011;40536;53.194;5.728;2024-01-15T09:34:53;11.88;;;10.95;;
54641;SDS011;40536;53.194;5.728;2024-01-15T09:37:18;12.80;;;10.63;;
54641;SDS011;40536;53.194;5.728;2024-01-15T09:39:44;93.82;;;85.75;;
54641;SDS011;40536;53.194;5.728;2024-01-15T09:42:10;40.78;;;37.38;;
54641;SDS011;40536;53.194;5.728;2024-01-15T09:44:36;43.97;;;41.47;;
54641;SDS011;40536;53.194;5.728;2024-01-15T09:47:03;28.58;;;26.73;;
54641;SDS011;40536;53.194;5.728;2024-01-15T09:49:30;68.50;;;62.97;;
54641;SDS011;40536;53.194;5.728;2024-01-15T09:51:56;119.10;;;111.72;;
54641;SDS011;40536;53.194;5.728;2024-01-15T09:54:23;120.05;;;112.10;;
54641;SDS011;40536;53.194;5.728;2024-01-15T09:56:49;129.55;;;119.82;;
54641;SDS011;40536;53.194;5.728;2024-01-15T09:59:16;127.90;;;120.18;;
54641;SDS011;40536;53.194;5.728;2024-01-15T10:01:43;140.68;;;133.18;;
54641;SDS011;40536;53.194;5.728;2024-01-15T10:04:10;125.50;;;117.72;;
54641;SDS011;40536;53.194;5.728;2024-01-15T10:06:37;163.82;;;155.32;;
54641;SDS011;40536;53.194;5.728;2024-01-15T10:09:04;161.88;;;152.57;;
54641;SDS011;40536;53.194;5.728;2024-01-15T10:11:30;185.02;;;170.60;;
54641;SDS011;40536;53.194;5.728;2024-01-15T10:13:57;54.08;;;51.38;;
54641;SDS011;40536;53.194;5.728;2024-01-15T10:16:22;29.05;;;27.45;;
54641;SDS011;40536;53.194;5.728;2024-01-15T10:18:49;23.83;;;22.42;;
54641;SDS011;40536;53.194;5.728;2024-01-15T10:21:14;19.00;;;18.00;;
54641;SDS011;40536;53.194;5.728;2024-01-15T10:23:41;34.92;;;32.88;;
54641;SDS011;40536;53.194;5.728;2024-01-15T10:26:07;76.45;;;72.30;;
54641;SDS011;40536;53.194;5.728;2024-01-15T10:28:33;56.75;;;53.67;;
54641;SDS011;40536;53.194;5.728;2024-01-15T10:30:59;41.83;;;38.95;;
54641;SDS011;40536;53.194;5.728;2024-01-15T10:33:26;67.85;;;64.28;;
54641;SDS011;40536;53.194;5.728;2024-01-15T10:35:54;64.03;;;60.28;;
54641;SDS011;40536;53.194;5.728;2024-01-15T10:38:23;86.00;;;81.65;;
54641;SDS011;40536;53.194;5.728;2024-01-15T10:40:55;45.67;;;43.17;;
54641;SDS011;40536;53.194;5.728;2024-01-15T10:43:22;36.17;;;33.60;;
54641;SDS011;40536;53.194;5.728;2024-01-15T10:45:48;56.67;;;53.50;;
54641;SDS011;40536;53.194;5.728;2024-01-15T10:48:16;28.38;;;26.23;;
54641;SDS011;40536;53.194;5.728;2024-01-15T10:50:43;23.23;;;20.98;;
54641;SDS011;40536;53.194;5.728;2024-01-15T10:53:10;16.90;;;15.15;;
54641;SDS011;40536;53.194;5.728;2024-01-15T10:55:37;37.63;;;34.72;;
54641;SDS011;40536;53.194;5.728;2024-01-15T10:58:04;20.77;;;19.30;;
54641;SDS011;40536;53.194;5.728;2024-01-15T11:00:32;46.95;;;44.13;;
54641;SDS011;40536;53.194;5.728;2024-01-15T11:03:05;48.53;;;45.22;;
54641;SDS011;40536;53.194;5.728;2024-01-15T11:05:38;20.40;;;18.67;;
54641;SDS011;40536;53.194;5.728;2024-01-15T11:08:08;37.92;;;35.35;;
54641;SDS011;40536;53.194;5.728;2024-01-15T11:10:44;38.35;;;35.65;;
54641;SDS011;40536;53.194;5.728;2024-01-15T11:13:21;95.18;;;88.22;;
54641;SDS011;40536;53.194;5.728;2024-01-15T11:16:04;49.35;;;45.83;;
54641;SDS011;40536;53.194;5.728;2024-01-15T11:18:40;71.28;;;66.25;;
54641;SDS011;40536;53.194;5.728;2024-01-15T11:23:41;44.78;;;41.65;;
54641;SDS011;40536;53.194;5.728;2024-01-15T11:28:57;22.48;;;20.80;;
54641;SDS011;40536;53.194;5.728;2024-01-15T11:34:06;25.85;;;24.15;;
54641;SDS011;40536;53.194;5.728;2024-01-15T11:41:59;75.93;;;71.47;;
54641;SDS011;40536;53.194;5.728;2024-01-15T11:44:26;49.30;;;46.30;;
54641;SDS011;40536;53.194;5.728;2024-01-15T11:46:59;61.35;;;58.00;;
54641;SDS011;40536;53.194;5.728;2024-01-15T11:52:26;97.22;;;92.07;;
54641;SDS011;40536;53.194;5.728;2024-01-15T11:57:56;110.80;;;105.43;;
54641;SDS011;40536;53.194;5.728;2024-01-15T12:00:23;165.65;;;156.50;;
54641;SDS011;40536;53.194;5.728;2024-01-15T12:02:49;116.65;;;110.95;;
54641;SDS011;40536;53.194;5.728;2024-01-15T12:05:18;126.18;;;119.72;;
54641;SDS011;40536;53.194;5.728;2024-01-15T12:07:46;45.33;;;42.72;;
54641;SDS011;40536;53.194;5.728;2024-01-15T12:10:16;43.58;;;41.42;;
54641;SDS011;40536;53.194;5.728;2024-01-15T12:15:17;32.22;;;30.42;;
54641;SDS011;40536;53.194;5.728;2024-01-15T12:17:43;37.10;;;34.75;;
54641;SDS011;40536;53.194;5.728;2024-01-15T12:20:10;35.58;;;33.13;;
54641;SDS011;40536;53.194;5.728;2024-01-15T12:22:37;38.97;;;36.22;;
54641;SDS011;40536;53.194;5.728;2024-01-15T12:25:03;48.92;;;45.65;;
54641;SDS011;40536;53.194;5.728;2024-01-15T12:27:29;37.83;;;35.33;;
54641;SDS011;40536;53.194;5.728;2024-01-15T12:29:55;38.60;;;35.50;;
54641;SDS011;40536;53.194;5.728;2024-01-15T12:32:20;44.00;;;41.17;;
54641;SDS011;40536;53.194;5.728;2024-01-15T12:34:48;40.17;;;37.17;;
54641;SDS011;40536;53.194;5.728;2024-01-15T12:37:15;39.03;;;36.25;;
54641;SDS011;40536;53.194;5.728;2024-01-15T12:39:43;44.22;;;40.55;;
54641;SDS011;40536;53.194;5.728;2024-01-15T12:42:13;25.17;;;20.60;;
54641;SDS011;40536;53.194;5.728;2024-01-15T12:44:39;18.75;;;16.95;;
54641;SDS011;40536;53.194;5.728;2024-01-15T12:47:05;19.45;;;16.10;;
54641;SDS011;40536;53.194;5.728;2024-01-15T12:49:31;15.65;;;12.75;;
54641;SDS011;40536;53.194;5.728;2024-01-15T12:51:58;20.73;;;15.82;;
54641;SDS011;40536;53.194;5.728;2024-01-15T12:54:24;16.83;;;15.15;;
54641;SDS011;40536;53.194;5.728;2024-01-15T12:56:50;13.77;;;12.38;;
54641;SDS011;40536;53.194;5.728;2024-01-15T12:59:17;18.50;;;16.67;;
54641;SDS011;40536;53.194;5.728;2024-01-15T13:01:43;20.02;;;14.02;;
54641;SDS011;40536;53.194;5.728;2024-01-15T13:04:10;17.65;;;13.68;;
54641;SDS011;40536;53.194;5.728;2024-01-15T13:06:36;17.70;;;16.20;;
54641;SDS011;40536;53.194;5.728;2024-01-15T13:09:04;20.02;;;13.60;;
54641;SDS011;40536;53.194;5.728;2024-01-15T13:11:31;17.45;;;12.93;;
54641;SDS011;40536;53.194;5.728;2024-01-15T13:13:57;21.05;;;16.88;;
54641;SDS011;40536;53.194;5.728;2024-01-15T13:16:23;17.70;;;11.98;;
54641;SDS011;40536;53.194;5.728;2024-01-15T13:18:52;21.48;;;13.98;;
54641;SDS011;40536;53.194;5.728;2024-01-15T13:21:17;27.42;;;25.15;;
54641;SDS011;40536;53.194;5.728;2024-01-15T13:23:43;20.70;;;19.00;;
54641;SDS011;40536;53.194;5.728;2024-01-15T13:26:08;21.02;;;14.75;;
54641;SDS011;40536;53.194;5.728;2024-01-15T13:28:34;21.38;;;13.35;;
54641;SDS011;40536;53.194;5.728;2024-01-15T13:31:00;62.40;;;58.30;;
54641;SDS011;40536;53.194;5.728;2024-01-15T13:33:27;13.27;;;12.32;;
54641;SDS011;40536;53.194;5.728;2024-01-15T13:35:53;9.10;;;8.35;;
54641;SDS011;40536;53.194;5.728;2024-01-15T13:38:19;12.35;;;8.40;;
54641;SDS011;40536;53.194;5.728;2024-01-15T13:40:44;8.65;;;7.72;;
54641;SDS011;40536;53.194;5.728;2024-01-15T13:43:12;8.02;;;7.22;;
54641;SDS011;40536;53.194;5.728;2024-01-15T13:45:39;28.77;;;26.13;;
54641;SDS011;40536;53.194;5.728;2024-01-15T13:48:06;19.35;;;16.58;;
54641;SDS011;40536;53.194;5.728;2024-01-15T13:50:33;23.42;;;19.27;;
54641;SDS011;40536;53.194;5.728;2024-01-15T13:53:00;33.90;;;31.02;;
54641;SDS011;40536;53.194;5.728;2024-01-15T13:55:26;28.38;;;25.52;;
54641;SDS011;40536;53.194;5.728;2024-01-15T13:57:54;22.30;;;19.98;;
54641;SDS011;40536;53.194;5.728;2024-01-15T14:00:19;19.83;;;17.90;;
54641;SDS011;40536;53.194;5.728;2024-01-15T14:02:46;25.45;;;23.67;;
54641;SDS011;40536;53.194;5.728;2024-01-15T14:05:12;20.92;;;18.75;;
54641;SDS011;40536;53.194;5.728;2024-01-15T14:07:38;21.52;;;19.67;;
54641;SDS011;40536;53.194;5.728;2024-01-15T14:10:04;27.20;;;24.27;;
54641;SDS011;40536;53.194;5.728;2024-01-15T14:12:33;13.82;;;12.52;;
54641;SDS011;40536;53.194;5.728;2024-01-15T14:14:59;23.80;;;22.02;;
54641;SDS011;40536;53.194;5.728;2024-01-15T14:17:26;83.38;;;77.97;;
54641;SDS011;40536;53.194;5.728;2024-01-15T14:19:52;51.58;;;48.22;;
54641;SDS011;40536;53.194;5.728;2024-01-15T14:22:17;23.27;;;22.10;;
54641;SDS011;40536;53.194;5.728;2024-01-15T14:24:43;25.23;;;23.65;;
54641;SDS011;40536;53.194;5.728;2024-01-15T14:27:09;39.72;;;37.72;;
54641;SDS011;40536;53.194;5.728;2024-01-15T14:29:35;58.85;;;55.95;;
54641;SDS011;40536;53.194;5.728;2024-01-15T14:32:01;32.20;;;30.65;;
54641;SDS011;40536;53.194;5.728;2024-01-15T14:34:31;28.33;;;26.83;;